Time;durP1;ratioP1;P1;durP2;ratioP2;P2;SDS_P1;SDS_P2;PMS_P1;PMS_P2;Temp;Humidity;BMP_temperature;BMP_pressure;BME280_temperature;BME280_humidity;BME280_pressure;Samples;Min_cycle;Max_cycle;Signal;HPM_P1;HPM_P2
2023/02/17 00:07:33;;;;;;;75.30;38.70;;;;;;;1.64;80.34;99071.90;438083;1248;99176;-41
2023/02/17 00:17:40;;;;;;;81.90;39.50;;;;;;;1.76;80.59;99065.48;438050;1250;106876;-40
2023/02/17 00:27:48;;;;;;;91.10;45.20;;;;;;;1.82;80.83;99056.49;438184;1248;99240;-39
2023/02/17 00:37:55;;;;;;;96.90;46.40;;;;;;;1.76;80.63;99054.58;438013;1248;111950;-40
2023/02/17 00:48:02;;;;;;;97.40;46.40;;;;;;;1.65;80.79;99048.80;438100;1260;107618;-40
2023/02/17 00:58:09;;;;;;;81.60;38.90;;;;;;;1.67;80.80;99029.16;438049;1250;99237;-41
2023/02/17 01:08:17;;;;;;;69.30;37.30;;;;;;;1.74;80.67;99021.27;438087;1248;112069;-40
2023/02/17 01:18:25;;;;;;;78.40;38.60;;;;;;;1.83;80.85;99028.27;438001;1248;106950;-40
2023/02/17 01:28:34;;;;;;;94.20;42.30;;;;;;;1.82;80.88;99038.64;438252;1250;98852;-40
2023/02/17 01:38:41;;;;;;;93.90;45.00;;;;;;;1.67;80.86;99037.98;438160;1250;111122;-43
2023/02/17 01:48:51;;;;;;;98.20;46.20;;;;;;;1.51;80.96;99028.63;437994;1250;108779;-40
2023/02/17 01:59:02;;;;;;;79.50;40.50;;;;;;;1.41;81.01;99011.80;438150;1248;99217;-39
2023/02/17 02:29:48;;;;;;;93.70;43.60;;;;;;;1.58;81.30;98984.05;435664;1252;111427;-39
2023/02/17 02:39:57;;;;;;;92.30;41.80;;;;;;;1.53;81.38;98973.84;435737;1252;108494;-41
2023/02/17 02:50:05;;;;;;;96.20;45.90;;;;;;;1.51;81.65;98967.36;435756;1252;98815;-40
2023/02/17 03:00:12;;;;;;;68.20;33.60;;;;;;;1.64;81.47;98954.60;435696;1252;110564;-40
2023/02/17 03:10:20;;;;;;;67.60;32.50;;;;;;;1.80;81.44;98944.55;435629;1249;105419;-40
2023/02/17 03:20:30;;;;;;;84.50;41.30;;;;;;;1.88;81.44;98943.15;436310;1252;99232;-40
2023/02/17 03:30:38;;;;;;;84.80;39.10;;;;;;;1.82;81.57;98937.01;436188;1252;370255;-40
2023/02/17 03:50:51;;;;;;;60.30;32.40;;;;;;;1.95;81.56;98937.48;436433;1248;110953;-40
2023/02/17 04:00:58;;;;;;;53.70;30.30;;;;;;;2.12;81.55;98935.09;436381;1248;108340;-40
2023/02/17 04:11:08;;;;;;;81.70;37.40;;;;;;;2.25;81.73;98933.18;436358;1253;98827;-39
2023/02/17 04:21:14;;;;;;;88.70;37.80;;;;;;;2.29;81.78;98927.67;437237;1250;111789;-39
2023/02/17 04:31:21;;;;;;;77.60;37.70;;;;;;;2.30;81.74;98922.36;437518;1260;107320;-40
2023/02/17 04:41:28;;;;;;;52.70;29.30;;;;;;;2.35;81.62;98913.73;437536;1247;99202;-39
2023/02/17 04:51:36;;;;;;;54.70;28.20;;;;;;;2.47;81.59;98903.05;437523;1250;112328;-41
2023/02/17 05:01:43;;;;;;;76.30;37.10;;;;;;;2.56;81.82;98895.70;437563;1247;108600;-40
2023/02/17 05:11:50;;;;;;;88.10;38.90;;;;;;;2.56;81.69;98886.90;437635;1248;99198;-39
2023/02/17 05:21:58;;;;;;;80.50;40.60;;;;;;;2.52;81.77;98876.06;437653;1250;110714;-40
2023/02/17 05:32:05;;;;;;;79.70;43.00;;;;;;;2.51;81.72;98870.77;437434;1247;110424;-39
2023/02/17 05:42:13;;;;;;;68.60;35.10;;;;;;;2.58;81.78;98867.21;437412;1250;99190;-39
2023/02/17 05:52:20;;;;;;;74.00;35.10;;;;;;;2.70;81.84;98864.40;440154;1250;112904;-40
2023/02/17 06:02:27;;;;;;;72.50;34.90;;;;;;;2.75;82.02;98845.01;437625;1248;108305;-40
2023/02/17 06:12:34;;;;;;;88.20;39.20;;;;;;;2.73;82.08;98844.33;439662;1250;99276;-40
2023/02/17 06:22:42;;;;;;;57.70;30.70;;;;;;;2.81;81.89;98841.60;439984;1247;111510;-40
2023/02/17 06:32:50;;;;;;;52.00;29.40;;;;;;;2.99;81.94;98839.17;437532;1247;108139;-40
2023/02/17 06:42:57;;;;;;;70.80;35.10;;;;;;;3.24;82.10;98840.95;439189;1248;99189;-41
2023/02/17 06:53:04;;;;;;;80.40;37.10;;;;;;;3.34;81.93;98829.63;439254;1250;108613;-40
2023/02/17 07:03:11;;;;;;;75.80;36.60;;;;;;;3.42;81.91;98842.52;439910;1250;98826;-40
2023/02/17 07:13:19;;;;;;;46.20;27.90;;;;;;;3.56;81.77;98846.59;440554;1250;99184;-42
2023/02/17 07:23:26;;;;;;;47.50;27.60;;;;;;;3.78;81.77;98832.13;440705;1250;108014;-40
2023/02/17 07:33:32;;;;;;;59.10;30.80;;;;;;;4.06;81.89;98813.23;440265;1250;98007;-39
2023/02/17 07:43:40;;;;;;;84.40;39.40;;;;;;;4.27;82.02;98807.61;440171;1251;111132;-40
2023/02/17 07:53:48;;;;;;;86.30;41.60;;;;;;;4.39;81.69;98809.34;440635;1248;107305;-40
2023/02/17 08:03:56;;;;;;;60.80;32.80;;;;;;;4.52;81.82;98801.98;438767;1251;99213;-40
2023/02/17 08:14:04;;;;;;;48.40;26.30;;;;;;;4.80;81.75;98801.36;439443;1260;111338;-40
2023/02/17 08:34:19;;;;;;;67.80;31.60;;;;;;;4.95;81.74;98795.79;437602;1250;99274;-40
2023/02/17 08:44:27;;;;;;;71.40;32.50;;;;;;;5.03;81.69;98795.70;437509;1260;107933;-41
2023/02/17 08:54:35;;;;;;;49.60;29.60;;;;;;;5.17;81.65;98800.88;437659;1258;99221;-41
2023/02/17 09:14:49;;;;;;;59.00;33.10;;;;;;;5.32;81.94;98772.52;437570;1254;107292;-39
2023/02/17 09:24:56;;;;;;;64.00;33.60;;;;;;;5.35;82.20;98772.17;437589;1253;97979;-41
2023/02/17 09:45:17;;;;;;;55.00;28.90;;;;;;;5.60;82.70;98775.02;437599;1260;99211;-40
2023/02/17 09:55:27;;;;;;;43.70;26.70;;;;;;;5.72;82.81;98772.54;437436;1248;111057;-39
2023/02/17 10:05:41;;;;;;;60.10;32.80;;;;;;;5.90;83.22;98760.36;437483;1250;106647;-40
2023/02/17 10:15:52;;;;;;;47.80;29.50;;;;;;;6.18;83.46;98738.25;437487;1247;99240;-40
2023/02/17 10:26:13;;;;;;;44.50;25.60;;;;;;;6.35;83.38;98720.50;437507;1247;107860;-43
2023/02/17 10:36:19;;;;;;;41.60;24.40;;;;;;;6.66;83.64;98700.80;437505;1248;99215;-39
2023/02/17 10:46:31;;;;;;;44.50;26.20;;;;;;;6.91;83.72;98684.53;437637;1251;112766;-41
2023/02/17 10:56:37;;;;;;;34.40;21.60;;;;;;;7.13;83.70;98669.65;438656;1260;108231;-41
2023/02/17 11:06:44;;;;;;;38.30;21.90;;;;;;;7.32;83.44;98653.16;437496;1251;99249;-39
2023/02/17 11:16:59;;;;;;;38.00;20.10;;;;;;;7.42;83.42;98637.58;437420;1251;108620;-39
2023/02/17 11:27:11;;;;;;;38.00;22.30;;;;;;;7.33;83.39;98621.50;437412;1248;98861;-39
2023/02/17 11:37:19;;;;;;;41.20;23.20;;;;;;;7.08;83.52;98606.06;437529;1250;110773;-40
2023/02/17 11:47:25;;;;;;;42.60;23.70;;;;;;;6.92;83.50;98599.12;437699;1252;110333;-40
2023/02/17 11:57:38;;;;;;;36.10;22.10;;;;;;;6.81;83.71;98586.24;438051;1248;98804;-40
2023/02/17 12:07:49;;;;;;;38.00;22.50;;;;;;;6.72;84.05;98580.70;438179;1251;109294;-38
2023/02/17 12:17:56;;;;;;;40.40;24.60;;;;;;;6.51;84.09;98570.98;438998;1247;99224;-40
2023/02/17 12:28:05;;;;;;;41.00;24.00;;;;;;;6.34;84.22;98555.70;438540;1251;112324;-40
2023/02/17 12:38:10;;;;;;;36.90;22.00;;;;;;;6.19;84.62;98543.27;440107;1251;108517;-40
2023/02/17 12:48:22;;;;;;;41.70;23.50;;;;;;;6.05;84.84;98529.55;438249;1251;99215;-39
2023/02/17 12:58:29;;;;;;;35.30;21.40;;;;;;;6.04;85.26;98500.84;438549;1250;109874;-40
2023/02/17 13:08:34;;;;;;;35.50;22.10;;;;;;;6.06;85.54;98471.11;437422;1250;98479;-41
2023/02/17 13:18:44;;;;;;;36.70;20.40;;;;;;;6.10;85.81;98445.17;437385;1251;111423;-39
2023/02/17 13:28:52;;;;;;;;;;;;;;;6.19;86.01;98426.42;437407;1251;107392;-40
2023/02/17 13:38:59;;;;;;;32.50;19.10;;;;;;;6.29;86.10;98402.44;438915;1252;98807;-39
2023/02/17 13:49:26;;;;;;;37.60;23.70;;;;;;;6.32;86.25;98387.31;437353;1247;108905;-39
2023/02/17 13:59:33;;;;;;;43.60;24.10;;;;;;;6.23;86.39;98385.30;437439;1247;98836;-40
2023/02/17 14:09:41;;;;;;;;;;;;;;;6.17;86.25;98379.95;438465;1250;110758;-40
2023/02/17 14:19:50;;;;;;;38.80;21.30;;;;;;;6.17;86.40;98360.73;437875;1250;108237;-40
2023/02/17 14:29:57;;;;;;;39.00;21.00;;;;;;;6.22;86.63;98337.12;438047;1250;99330;-41
2023/02/17 14:40:03;;;;;;;33.20;18.10;;;;;;;6.29;86.71;98311.42;438387;1250;108650;-40
2023/02/17 14:50:09;;;;;;;30.80;18.70;;;;;;;6.39;86.93;98290.23;437385;1248;98000;-39
2023/02/17 15:00:18;;;;;;;33.30;18.70;;;;;;;6.43;87.02;98275.33;437423;1254;111414;-40
2023/02/17 15:10:23;;;;;;;30.10;17.00;;;;;;;6.43;87.12;98265.23;437432;1247;107737;-40
2023/02/17 15:20:31;;;;;;;28.20;17.00;;;;;;;6.39;87.36;98251.54;437378;1250;99228;-40
2023/02/17 15:30:37;;;;;;;24.40;15.40;;;;;;;6.36;87.50;98223.23;437092;1250;364614;-40
2023/02/17 15:40:42;;;;;;;27.10;15.00;;;;;;;6.30;87.71;98202.59;437488;1247;99215;-40
2023/02/17 15:50:50;;;;;;;23.00;14.50;;;;;;;6.25;87.85;98183.00;437379;1248;110707;-40
2023/02/17 16:00:59;;;;;;;25.60;16.00;;;;;;;6.20;88.18;98185.63;437429;1248;107340;-40
2023/02/17 16:11:04;;;;;;;28.80;17.10;;;;;;;6.18;88.22;98173.49;437501;1250;99254;-40
2023/02/17 16:31:18;;;;;;;28.20;17.30;;;;;;;6.07;88.65;98125.56;437439;1247;99190;-39
2023/02/17 16:41:25;;;;;;;34.80;19.80;;;;;;;6.04;89.06;98113.97;437359;1247;111447;-40
2023/02/17 16:51:32;;;;;;;33.30;20.60;;;;;;;6.03;89.29;98094.67;437367;1247;107903;-40
2023/02/17 17:01:39;;;;;;;33.00;19.80;;;;;;;6.05;89.91;98073.05;437287;1250;98569;-39
2023/02/17 17:11:47;;;;;;;28.80;19.20;;;;;;;6.07;89.93;98086.65;437285;1246;107677;-40
2023/02/17 17:21:54;;;;;;;26.90;18.30;;;;;;;6.09;90.06;98091.55;437348;1247;98022;-39
2023/02/17 17:32:01;;;;;;;33.10;20.70;;;;;;;6.10;90.36;98080.77;437156;1251;111261;-41
2023/02/17 17:42:09;;;;;;;30.50;18.80;;;;;;;6.13;90.52;98069.42;437304;1247;106909;-39
2023/02/17 17:52:16;;;;;;;29.90;19.30;;;;;;;6.17;90.88;98067.80;437239;1250;98014;-40
2023/02/17 18:02:23;;;;;;;31.60;17.10;;;;;;;6.19;90.86;98069.89;437191;1246;107486;-40
2023/02/17 18:12:32;;;;;;;32.50;18.20;;;;;;;6.21;91.44;98072.73;437236;1250;99172;-39
2023/02/17 18:22:40;;;;;;;30.60;17.70;;;;;;;6.23;91.67;98066.41;437341;1250;112394;-39
2023/02/17 18:32:47;;;;;;;29.80;19.20;;;;;;;6.27;91.77;98064.77;437234;1247;107842;-40
2023/02/17 18:42:55;;;;;;;28.80;17.30;;;;;;;6.33;92.09;98054.52;437297;1250;99221;-40
2023/02/17 18:53:02;;;;;;;28.90;16.80;;;;;;;6.40;92.29;98043.23;437266;1247;108391;-39
2023/02/17 19:03:11;;;;;;;27.40;16.40;;;;;;;6.47;92.45;98052.09;437526;1250;98005;-39
2023/02/17 19:13:18;;;;;;;23.40;15.20;;;;;;;6.55;92.93;98059.56;437345;1248;111092;-38
2023/02/17 19:23:25;;;;;;;30.40;17.30;;;;;;;6.64;93.18;98052.80;437438;1247;108869;-40
2023/02/17 19:33:33;;;;;;;26.00;15.20;;;;;;;6.74;93.45;98034.55;437268;1250;99263;-40
2023/02/17 19:53:46;;;;;;;20.00;14.20;;;;;;;6.94;93.58;98029.80;437307;1250;98005;-39
2023/02/17 20:03:53;;;;;;;20.60;14.80;;;;;;;7.04;93.61;98034.48;437437;1247;112277;-40
2023/02/17 20:14:00;;;;;;;25.50;16.00;;;;;;;7.12;93.60;98049.43;437482;1250;107070;-40
2023/02/17 20:24:04;;;;;;;25.00;16.00;;;;;;;7.16;93.73;98042.62;437404;1248;99227;-40
2023/02/17 20:34:24;;;;;;;23.30;16.20;;;;;;;7.19;93.63;98043.48;437420;1246;107697;-40
2023/02/17 20:44:30;;;;;;;26.90;17.20;;;;;;;7.25;93.93;98044.11;437450;1249;98878;-40
2023/02/17 21:04:45;;;;;;;26.70;16.90;;;;;;;7.50;94.47;98081.33;437573;1247;106990;-40
2023/02/17 21:14:52;;;;;;;20.90;13.90;;;;;;;7.68;94.60;98082.23;437476;1248;99231;-39
2023/02/17 21:25:00;;;;;;;23.60;14.80;;;;;;;7.81;94.80;98075.23;437442;1248;108864;-40
2023/02/17 21:35:05;;;;;;;19.40;11.80;;;;;;;7.92;95.78;98048.02;437361;1250;98351;-39
2023/02/17 21:45:11;;;;;;;17.50;11.90;;;;;;;7.99;96.02;98033.65;437349;1247;111737;-40
2023/02/17 21:55:18;;;;;;;12.20;9.80;;;;;;;8.09;96.39;98015.72;437401;1250;108508;-40
2023/02/17 22:05:29;;;;;;;8.90;8.00;;;;;;;8.20;96.80;98020.04;437389;1247;98001;-40
2023/02/17 22:15:36;;;;;;;9.30;6.90;;;;;;;8.36;97.34;98022.69;438165;1247;108133;-40
2023/02/17 22:25:42;;;;;;;11.00;7.90;;;;;;;8.46;97.28;98021.58;437483;1248;98801;-39
2023/02/17 22:35:56;;;;;;;9.90;7.20;;;;;;;8.47;96.91;98018.86;437705;1250;111879;-40
2023/02/17 22:46:20;;;;;;;9.20;8.00;;;;;;;8.55;96.93;98025.80;437475;1247;107206;-38
2023/02/17 22:56:28;;;;;;;12.10;8.60;;;;;;;8.58;96.73;98028.98;437660;1250;97978;-39
2023/02/17 23:06:37;;;;;;;10.20;6.30;;;;;;;8.66;96.76;98038.83;437621;1250;108066;-40
2023/02/17 23:16:45;;;;;;;9.10;6.40;;;;;;;8.70;96.64;98050.34;437559;1247;98568;-40
2023/02/17 23:26:53;;;;;;;7.90;5.50;;;;;;;8.71;96.20;98056.10;437564;1251;111912;-40
2023/02/17 23:37:01;;;;;;;7.80;5.20;;;;;;;8.71;95.75;98081.31;437440;1250;108093;-39
2023/02/17 23:47:08;;;;;;;9.90;5.90;;;;;;;8.68;94.95;98099.27;437443;1250;99304;-40
2023/02/17 23:57:15;;;;;;;9.80;4.60;;;;;;;8.58;93.33;98083.66;437502;1246;108697;-40
